createdAt,value
2022-11-17T00:02:25.477Z,6.69
2022-11-17T00:04:54.726Z,6.59
2022-11-17T00:07:22.473Z,7.19
2022-11-17T00:09:50.262Z,6.84
2022-11-17T00:12:35.421Z,6.53
2022-11-17T00:15:03.158Z,6.47
2022-11-17T00:17:30.845Z,6.46
2022-11-17T00:20:17.414Z,6.63
2022-11-17T00:22:45.047Z,6.69
2022-11-17T00:25:12.812Z,6.37
2022-11-17T00:27:40.615Z,6.96
2022-11-17T00:30:30.010Z,6.54
2022-11-17T00:33:19.993Z,6.60
2022-11-17T00:35:54.319Z,6.81
2022-11-17T00:38:22.184Z,6.44
2022-11-17T00:40:49.940Z,6.37
2022-11-17T00:43:17.622Z,6.58
2022-11-17T00:45:45.370Z,6.79
2022-11-17T00:48:13.823Z,6.49
2022-11-17T00:50:41.537Z,6.75
2022-11-17T00:53:10.713Z,7.13
2022-11-17T00:55:38.634Z,6.57
2022-11-17T00:58:06.512Z,6.66
2022-11-17T01:00:34.228Z,6.75
2022-11-17T01:03:01.975Z,6.53
2022-11-17T01:05:33.007Z,6.50
2022-11-17T01:08:01.007Z,6.44
2022-11-17T01:10:30.092Z,6.81
2022-11-17T01:12:57.876Z,6.48
2022-11-17T01:15:25.520Z,6.61
2022-11-17T01:17:53.189Z,6.76
2022-11-17T01:20:21.541Z,6.67
2022-11-17T01:22:49.231Z,6.40
2022-11-17T01:25:16.954Z,6.78
2022-11-17T01:27:46.141Z,6.38
2022-11-17T01:30:14.774Z,6.35
2022-11-17T01:32:42.567Z,6.64
2022-11-17T01:35:10.576Z,6.81
2022-11-17T01:37:38.281Z,6.51
2022-11-17T01:40:07.222Z,6.37
2022-11-17T01:42:34.922Z,6.56
2022-11-17T01:45:17.639Z,6.26
2022-11-17T01:47:48.541Z,6.40
2022-11-17T01:50:29.278Z,6.47
2022-11-17T01:52:59.997Z,6.62
2022-11-17T01:55:33.175Z,6.20
2022-11-17T01:58:06.919Z,6.20
2022-11-17T02:00:36.171Z,6.45
2022-11-17T02:03:07.271Z,6.29
2022-11-17T02:05:42.748Z,6.49
2022-11-17T02:08:12.071Z,6.44
2022-11-17T02:10:40.192Z,6.21
2022-11-17T02:13:09.208Z,6.35
2022-11-17T02:15:38.353Z,6.54
2022-11-17T02:18:06.604Z,6.64
2022-11-17T02:20:54.135Z,6.24
2022-11-17T02:23:58.299Z,6.26
2022-11-17T02:26:59.617Z,6.43
2022-11-17T02:29:36.273Z,6.30
2022-11-17T02:32:08.850Z,6.05
2022-11-17T02:34:44.994Z,6.53
2022-11-17T02:37:21.706Z,6.39
2022-11-17T02:39:55.999Z,6.32
2022-11-17T02:42:43.868Z,6.47
2022-11-17T02:45:18.638Z,6.26
2022-11-17T02:47:49.501Z,6.06
2022-11-17T02:50:21.925Z,6.24
2022-11-17T02:52:53.174Z,6.39
2022-11-17T02:55:20.963Z,6.58
2022-11-17T02:57:49.572Z,6.74
2022-11-17T03:00:21.060Z,6.28
2022-11-17T03:03:11.245Z,6.55
2022-11-17T03:05:49.822Z,6.36
2022-11-17T03:08:33.009Z,6.17
2022-11-17T03:11:03.671Z,5.90
2022-11-17T03:13:41.871Z,6.13
2022-11-17T03:16:18.559Z,6.45
2022-11-17T03:18:56.840Z,6.11
2022-11-17T03:21:29.882Z,5.89
2022-11-17T03:24:04.018Z,5.72
2022-11-17T03:26:36.876Z,6.18
2022-11-17T03:29:09.528Z,6.03
2022-11-17T03:31:40.323Z,5.89
2022-11-17T03:34:14.254Z,6.13
2022-11-17T03:36:48.240Z,5.95
2022-11-17T03:39:21.403Z,6.20
2022-11-17T03:41:52.327Z,5.83
2022-11-17T03:44:24.069Z,5.68
2022-11-17T03:46:56.678Z,5.75
2022-11-17T03:49:37.281Z,5.71
2022-11-17T03:52:05.638Z,5.91
2022-11-17T03:54:34.007Z,5.58
2022-11-17T03:57:08.103Z,5.72
2022-11-17T03:59:45.004Z,5.67
2022-11-17T04:02:19.133Z,5.78
2022-11-17T04:05:04.784Z,5.74
2022-11-17T04:07:32.597Z,5.57
2022-11-17T04:10:00.325Z,5.89
2022-11-17T04:12:45.589Z,5.46
2022-11-17T04:15:30.905Z,6.08
2022-11-17T04:18:00.151Z,5.49
2022-11-17T04:20:35.803Z,5.74
2022-11-17T04:23:11.429Z,5.66
2022-11-17T04:25:58.198Z,6.12
2022-11-17T04:28:39.665Z,5.87
2022-11-17T04:31:10.032Z,5.71
2022-11-17T04:33:41.246Z,5.59
2022-11-17T04:36:09.809Z,5.67
2022-11-17T04:38:37.821Z,5.56
2022-11-17T04:41:25.406Z,6.10
2022-11-17T04:43:53.691Z,5.64
2022-11-17T04:46:22.749Z,5.82
2022-11-17T04:48:54.166Z,5.66
2022-11-17T04:51:23.200Z,5.85
2022-11-17T04:53:51.435Z,5.85
2022-11-17T04:56:20.758Z,5.73
2022-11-17T04:58:49.275Z,5.76
2022-11-17T05:01:18.701Z,5.50
2022-11-17T05:03:48.715Z,5.75
2022-11-17T05:06:20.315Z,5.61
2022-11-17T05:08:48.529Z,5.43
2022-11-17T05:11:34.765Z,5.62
2022-11-17T05:14:03.471Z,5.82
2022-11-17T05:16:48.639Z,5.57
2022-11-17T05:19:19.269Z,5.86
2022-11-17T05:21:48.761Z,5.62
2022-11-17T05:24:16.836Z,5.50
2022-11-17T05:26:45.923Z,5.59
2022-11-17T05:29:15.601Z,5.61
2022-11-17T05:31:43.448Z,5.97
2022-11-17T05:34:13.288Z,5.54
2022-11-17T05:36:42.010Z,5.85
2022-11-17T05:39:11.509Z,5.59
2022-11-17T05:41:39.261Z,5.60
2022-11-17T05:44:07.071Z,5.49
2022-11-17T05:46:34.742Z,5.30
2022-11-17T05:49:02.648Z,5.46
2022-11-17T05:51:32.258Z,5.39
2022-11-17T05:54:00.110Z,5.25
2022-11-17T05:56:34.922Z,5.42
2022-11-17T05:59:13.965Z,5.36
2022-11-17T06:01:46.938Z,5.39
2022-11-17T06:04:17.788Z,5.38
2022-11-17T06:06:46.317Z,5.42
2022-11-17T06:09:14.243Z,5.48
2022-11-17T06:11:43.441Z,5.80
2022-11-17T06:14:11.255Z,5.53
2022-11-17T06:16:44.789Z,5.33
2022-11-17T06:19:17.687Z,5.77
2022-11-17T06:22:10.747Z,5.38
2022-11-17T06:24:34.325Z,5.33
2022-11-17T06:27:03.679Z,5.61
2022-11-17T06:29:31.923Z,5.72
2022-11-17T06:32:00.311Z,5.90
2022-11-17T06:34:29.054Z,5.24
2022-11-17T06:36:56.736Z,5.69
2022-11-17T06:39:24.653Z,5.17
2022-11-17T06:41:52.472Z,5.19
2022-11-17T06:44:21.592Z,5.48
2022-11-17T06:46:49.538Z,5.23
2022-11-17T06:49:17.460Z,5.22
2022-11-17T06:51:45.753Z,5.16
2022-11-17T06:54:14.844Z,5.52
2022-11-17T06:56:43.623Z,5.61
2022-11-17T06:59:11.366Z,5.43
2022-11-17T07:01:40.575Z,5.31
2022-11-17T07:04:08.898Z,5.23
2022-11-17T07:06:37.546Z,5.68
2022-11-17T07:09:05.783Z,5.60
2022-11-17T07:11:36.150Z,5.20
2022-11-17T07:14:03.852Z,5.40
2022-11-17T07:16:32.603Z,5.77
2022-11-17T07:19:03.695Z,5.32
2022-11-17T07:21:32.104Z,5.18
2022-11-17T07:23:59.988Z,5.22
2022-11-17T07:26:27.922Z,5.30
2022-11-17T07:28:55.924Z,5.33
2022-11-17T07:31:23.736Z,5.23
2022-11-17T07:33:51.535Z,5.02
2022-11-17T07:36:20.711Z,5.30
2022-11-17T07:38:48.583Z,5.24
2022-11-17T07:41:16.344Z,5.31
2022-11-17T07:43:44.199Z,5.39
2022-11-17T07:46:13.993Z,5.33
2022-11-17T07:48:42.890Z,4.80
2022-11-17T07:51:11.631Z,5.03
2022-11-17T07:53:40.771Z,5.20
2022-11-17T07:56:10.639Z,5.21
2022-11-17T07:58:39.552Z,5.26
2022-11-17T08:01:08.213Z,5.22
2022-11-17T08:03:36.425Z,5.40
2022-11-17T08:06:04.791Z,5.60
2022-11-17T08:08:33.010Z,5.08
2022-11-17T08:11:05.113Z,4.97
2022-11-17T08:13:33.494Z,5.24
2022-11-17T08:16:01.443Z,5.35
2022-11-17T08:18:29.827Z,5.58
2022-11-17T08:21:03.332Z,5.39
2022-11-17T08:23:31.452Z,5.20
2022-11-17T08:25:59.647Z,5.54
2022-11-17T08:28:28.907Z,5.15
2022-11-17T08:30:56.904Z,5.51
2022-11-17T08:33:24.661Z,5.57
2022-11-17T08:35:52.522Z,5.36
2022-11-17T08:38:20.186Z,5.12
2022-11-17T08:40:48.159Z,5.24
2022-11-17T08:43:15.954Z,4.96
2022-11-17T08:45:45.066Z,5.57
2022-11-17T08:48:12.831Z,5.20
2022-11-17T08:50:40.603Z,5.59
2022-11-17T08:53:14.502Z,5.23
2022-11-17T08:55:42.487Z,5.08
2022-11-17T08:58:10.786Z,5.47
2022-11-17T09:00:38.746Z,5.77
2022-11-17T09:03:09.049Z,5.34
2022-11-17T09:05:39.970Z,5.67
2022-11-17T09:08:30.196Z,5.43
2022-11-17T09:10:56.516Z,5.48
2022-11-17T09:13:24.206Z,5.65
2022-11-17T09:15:52.085Z,5.28
2022-11-17T09:18:21.209Z,5.41
2022-11-17T09:20:48.924Z,5.47
2022-11-17T09:23:16.623Z,5.68
2022-11-17T09:25:44.450Z,5.65
2022-11-17T09:28:12.225Z,5.50
2022-11-17T09:30:40.085Z,5.82
2022-11-17T09:33:07.896Z,5.62
2022-11-17T09:35:37.181Z,5.47
2022-11-17T09:38:04.949Z,5.42
2022-11-17T09:40:37.627Z,5.55
2022-11-17T09:43:09.499Z,5.22
2022-11-17T09:45:40.193Z,5.36
2022-11-17T09:48:40.161Z,5.71
2022-11-17T09:51:07.646Z,5.61
2022-11-17T09:53:44.786Z,5.29
2022-11-17T09:56:14.620Z,5.03
2022-11-17T09:58:47.214Z,5.55
2022-11-17T10:01:18.797Z,5.45
2022-11-17T10:03:48.598Z,5.32
2022-11-17T10:06:22.001Z,5.24
2022-11-17T10:09:00.173Z,5.54
2022-11-17T10:11:33.955Z,5.24
2022-11-17T10:14:13.452Z,5.69
2022-11-17T10:16:44.063Z,5.26
2022-11-17T10:19:16.629Z,5.55
2022-11-17T10:21:46.329Z,5.12
2022-11-17T10:24:34.166Z,5.01
2022-11-17T10:27:03.260Z,5.58
2022-11-17T10:29:31.459Z,5.06
2022-11-17T10:31:59.827Z,5.11
2022-11-17T10:34:38.863Z,5.09
2022-11-17T10:37:26.042Z,5.00
2022-11-17T10:40:10.061Z,4.85
2022-11-17T10:42:37.847Z,4.96
2022-11-17T10:45:07.505Z,4.83
2022-11-17T10:47:39.947Z,5.33
2022-11-17T10:50:24.363Z,5.17
2022-11-17T10:52:54.929Z,5.22
2022-11-17T10:55:28.706Z,4.91
2022-11-17T10:58:01.388Z,5.29
2022-11-17T11:00:32.294Z,5.21
2022-11-17T11:03:17.109Z,5.10
2022-11-17T11:06:22.625Z,5.36
2022-11-17T11:08:56.358Z,5.21
2022-11-17T11:11:42.207Z,5.25
2022-11-17T11:14:19.164Z,5.10
2022-11-17T11:16:48.942Z,4.97
2022-11-17T11:19:18.576Z,5.23
2022-11-17T11:21:59.119Z,5.28
2022-11-17T11:24:35.913Z,5.55
2022-11-17T11:27:21.606Z,5.12
2022-11-17T11:30:00.734Z,5.01
2022-11-17T11:32:39.961Z,4.88
2022-11-17T11:35:33.425Z,5.49
2022-11-17T11:38:14.803Z,5.15
2022-11-17T11:40:53.049Z,5.40
2022-11-17T11:43:33.086Z,5.26
2022-11-17T11:46:09.783Z,5.02
2022-11-17T11:48:41.151Z,5.40
2022-11-17T11:51:15.566Z,5.30
2022-11-17T11:53:49.348Z,5.26
2022-11-17T11:56:23.463Z,5.54
2022-11-17T11:58:58.236Z,5.29
2022-11-17T12:01:27.476Z,5.36
2022-11-17T12:04:07.204Z,5.19
2022-11-17T12:06:42.738Z,5.21
2022-11-17T12:09:40.402Z,5.38
2022-11-17T12:12:16.008Z,5.33
2022-11-17T12:15:09.561Z,4.76
2022-11-17T12:17:37.843Z,5.26
2022-11-17T12:20:26.980Z,5.53
2022-11-17T12:23:18.296Z,5.16
2022-11-17T12:25:53.500Z,5.23
2022-11-17T12:28:33.276Z,5.48
2022-11-17T12:31:08.312Z,5.28
2022-11-17T12:34:23.772Z,5.45
2022-11-17T12:37:17.914Z,5.34
2022-11-17T12:39:54.738Z,5.62
2022-11-17T12:42:22.532Z,5.42
2022-11-17T12:44:58.136Z,5.40
2022-11-17T12:47:27.728Z,5.18
2022-11-17T12:50:19.010Z,5.77
2022-11-17T12:52:56.091Z,5.24
2022-11-17T12:55:35.922Z,5.41
2022-11-17T12:58:10.776Z,5.40
2022-11-17T13:00:47.986Z,5.51
2022-11-17T13:03:20.012Z,5.36
2022-11-17T13:06:33.802Z,5.57
2022-11-17T13:08:59.646Z,5.29
2022-11-17T13:11:28.141Z,5.41
2022-11-17T13:14:10.177Z,5.37
2022-11-17T13:16:45.754Z,5.64
2022-11-17T13:19:33.865Z,5.30
2022-11-17T13:22:04.099Z,5.30
2022-11-17T13:24:35.014Z,5.37
2022-11-17T13:27:07.277Z,5.43
2022-11-17T13:29:35.466Z,5.45
2022-11-17T13:32:13.707Z,5.10
2022-11-17T13:34:49.724Z,5.05
2022-11-17T13:37:19.327Z,5.46
2022-11-17T13:39:58.644Z,5.18
2022-11-17T13:42:28.874Z,5.34
2022-11-17T13:44:59.546Z,5.25
2022-11-17T13:47:43.366Z,5.60
2022-11-17T13:50:39.513Z,5.48
2022-11-17T13:53:25.487Z,5.30
2022-11-17T13:55:54.281Z,5.12
2022-11-17T13:58:38.483Z,5.69
2022-11-17T14:01:06.440Z,4.97
2022-11-17T14:03:40.681Z,5.39
2022-11-17T14:06:10.713Z,5.32
2022-11-17T14:08:39.676Z,5.40
2022-11-17T14:11:21.546Z,5.40
2022-11-17T14:13:52.090Z,5.08
2022-11-17T14:16:27.079Z,5.09
2022-11-17T14:19:02.292Z,5.51
2022-11-17T14:21:31.284Z,5.29
2022-11-17T14:24:11.519Z,5.01
2022-11-17T14:26:44.491Z,5.13
2022-11-17T14:29:13.813Z,5.09
2022-11-17T14:31:41.541Z,5.07
2022-11-17T14:34:10.702Z,4.90
2022-11-17T14:36:39.904Z,5.03
2022-11-17T14:39:14.648Z,5.23
2022-11-17T14:41:43.003Z,5.02
2022-11-17T14:44:12.390Z,4.95
2022-11-17T14:46:40.592Z,5.14
2022-11-17T14:49:08.385Z,4.89
2022-11-17T14:51:37.619Z,4.99
2022-11-17T14:54:05.679Z,5.05
2022-11-17T14:56:34.748Z,5.02
2022-11-17T14:59:02.684Z,4.58
2022-11-17T15:01:32.696Z,4.66
2022-11-17T15:04:20.815Z,5.06
2022-11-17T15:06:51.951Z,4.93
2022-11-17T15:09:20.618Z,5.26
2022-11-17T15:11:48.790Z,4.42
2022-11-17T15:14:16.733Z,4.79
2022-11-17T15:16:44.830Z,5.00
2022-11-17T15:19:13.127Z,5.17
2022-11-17T15:21:40.963Z,4.95
2022-11-17T15:24:10.450Z,4.87
2022-11-17T15:26:38.311Z,4.97
2022-11-17T15:29:06.051Z,5.28
2022-11-17T15:31:34.064Z,5.06
2022-11-17T15:34:02.372Z,4.95
2022-11-17T15:36:31.833Z,5.03
2022-11-17T15:38:59.596Z,4.78
2022-11-17T15:41:32.746Z,4.62
2022-11-17T15:44:00.732Z,4.76
2022-11-17T15:46:28.542Z,4.79
2022-11-17T15:48:56.975Z,4.66
2022-11-17T15:51:26.672Z,5.15
2022-11-17T15:53:57.982Z,4.81
2022-11-17T15:56:28.740Z,4.74
2022-11-17T15:58:57.876Z,4.70
2022-11-17T16:01:29.713Z,4.82
2022-11-17T16:03:59.523Z,4.79
2022-11-17T16:06:27.484Z,4.76
2022-11-17T16:08:55.767Z,4.82
2022-11-17T16:11:23.721Z,4.66
2022-11-17T16:13:54.818Z,4.87
2022-11-17T16:16:23.635Z,4.96
2022-11-17T16:18:51.391Z,4.72
2022-11-17T16:21:20.035Z,4.78
2022-11-17T16:23:49.415Z,4.90
2022-11-17T16:26:19.511Z,4.67
2022-11-17T16:28:47.904Z,4.74
2022-11-17T16:31:19.852Z,4.74
2022-11-17T16:33:49.378Z,5.09
2022-11-17T16:36:17.631Z,5.00
2022-11-17T16:39:02.158Z,4.92
2022-11-17T16:41:32.701Z,5.17
2022-11-17T16:44:00.893Z,4.60
2022-11-17T16:46:31.786Z,4.96
2022-11-17T16:49:02.704Z,4.90
2022-11-17T16:51:30.584Z,4.60
2022-11-17T16:54:00.565Z,5.02
2022-11-17T16:56:28.909Z,4.85
2022-11-17T16:58:56.932Z,4.86
2022-11-17T17:01:27.151Z,5.02
2022-11-17T17:04:00.711Z,4.78
2022-11-17T17:06:29.256Z,4.86
2022-11-17T17:08:57.670Z,4.74
2022-11-17T17:11:27.267Z,4.75
2022-11-17T17:13:56.244Z,4.92
2022-11-17T17:16:24.039Z,4.81
2022-11-17T17:18:56.196Z,5.06
2022-11-17T17:21:25.236Z,5.33
2022-11-17T17:23:53.140Z,5.22
2022-11-17T17:26:22.552Z,5.04
2022-11-17T17:28:51.997Z,5.19
2022-11-17T17:31:22.128Z,5.19
2022-11-17T17:33:51.316Z,4.82
2022-11-17T17:36:21.110Z,5.00
2022-11-17T17:38:55.376Z,4.95
2022-11-17T17:41:25.301Z,4.97
2022-11-17T17:43:56.641Z,4.93
2022-11-17T17:46:24.878Z,4.98
2022-11-17T17:48:52.736Z,4.92
2022-11-17T17:51:23.859Z,4.91
2022-11-17T17:53:53.295Z,4.89
2022-11-17T17:56:22.753Z,5.13
2022-11-17T17:58:51.698Z,5.17
2022-11-17T18:01:21.677Z,5.02
2022-11-17T18:03:50.928Z,4.86
2022-11-17T18:06:20.252Z,4.81
2022-11-17T18:08:48.514Z,4.85
2022-11-17T18:11:19.560Z,5.05
2022-11-17T18:13:49.197Z,4.78
2022-11-17T18:16:19.044Z,4.80
2022-11-17T18:18:46.819Z,4.84
2022-11-17T18:21:16.653Z,4.93
2022-11-17T18:23:44.997Z,4.61
2022-11-17T18:26:15.648Z,4.96
2022-11-17T18:28:50.153Z,4.35
2022-11-17T18:31:17.967Z,5.09
2022-11-17T18:33:46.146Z,4.73
2022-11-17T18:36:13.866Z,4.81
2022-11-17T18:38:41.588Z,4.82
2022-11-17T18:41:11.349Z,4.70
2022-11-17T18:43:39.980Z,4.90
2022-11-17T18:46:10.624Z,4.85
2022-11-17T18:48:39.921Z,4.70
2022-11-17T18:51:25.049Z,4.81
2022-11-17T18:53:54.488Z,4.96
2022-11-17T18:56:24.439Z,4.92
2022-11-17T18:58:52.849Z,4.62
2022-11-17T19:01:23.858Z,4.90
2022-11-17T19:03:53.465Z,4.60
2022-11-17T19:06:22.673Z,4.71
2022-11-17T19:08:51.097Z,4.92
2022-11-17T19:11:20.456Z,5.06
2022-11-17T19:13:48.501Z,4.79
2022-11-17T19:16:17.992Z,4.88
2022-11-17T19:18:48.946Z,4.94
2022-11-17T19:21:18.725Z,4.78
2022-11-17T19:23:51.458Z,4.53
2022-11-17T19:26:21.651Z,4.88
2022-11-17T19:28:49.653Z,4.82
2022-11-17T19:31:20.005Z,5.14
2022-11-17T19:33:50.013Z,4.77
2022-11-17T19:36:19.600Z,4.85
2022-11-17T19:38:49.202Z,4.72
2022-11-17T19:41:19.112Z,4.31
2022-11-17T19:43:46.850Z,4.81
2022-11-17T19:46:16.607Z,4.86
2022-11-17T19:48:45.284Z,4.47
2022-11-17T19:51:16.903Z,4.38
2022-11-17T19:53:44.647Z,4.44
2022-11-17T19:56:12.389Z,4.64
2022-11-17T19:58:41.830Z,4.61
2022-11-17T20:01:12.100Z,4.64
2022-11-17T20:03:40.742Z,4.28
2022-11-17T20:06:09.619Z,4.66
2022-11-17T20:08:39.022Z,4.45
2022-11-17T20:11:09.395Z,4.45
2022-11-17T20:13:38.241Z,4.47
2022-11-17T20:16:12.047Z,4.33
2022-11-17T20:18:40.095Z,4.47
2022-11-17T20:21:08.992Z,4.25
2022-11-17T20:23:39.369Z,4.18
2022-11-17T20:26:08.262Z,4.84
2022-11-17T20:28:40.114Z,4.05
2022-11-17T20:31:09.901Z,4.16
2022-11-17T20:33:38.268Z,4.17
2022-11-17T20:36:06.951Z,4.36
2022-11-17T20:38:35.879Z,3.98
2022-11-17T20:41:06.234Z,3.86
2022-11-17T20:43:35.012Z,3.94
2022-11-17T20:46:03.663Z,4.11
2022-11-17T20:48:34.133Z,4.00
2022-11-17T20:51:04.200Z,3.92
2022-11-17T20:53:33.082Z,3.89
2022-11-17T20:56:02.346Z,4.18
2022-11-17T20:58:32.271Z,4.19
2022-11-17T21:01:00.412Z,4.24
2022-11-17T21:03:28.448Z,4.28
2022-11-17T21:05:59.246Z,3.65
2022-11-17T21:08:28.833Z,3.96
2022-11-17T21:10:56.844Z,3.99
2022-11-17T21:13:25.376Z,3.61
2022-11-17T21:16:05.752Z,4.02
2022-11-17T21:18:34.147Z,3.88
2022-11-17T21:21:04.580Z,3.98
2022-11-17T21:23:32.638Z,3.81
2022-11-17T21:26:04.707Z,3.88
2022-11-17T21:28:32.539Z,3.94
2022-11-17T21:31:07.729Z,3.96
2022-11-17T21:33:35.961Z,3.91
2022-11-17T21:36:04.103Z,3.81
2022-11-17T21:38:31.866Z,3.77
2022-11-17T21:41:02.992Z,4.13
2022-11-17T21:43:30.791Z,3.80
2022-11-17T21:46:02.252Z,4.00
2022-11-17T21:48:31.376Z,3.80
2022-11-17T21:50:59.689Z,4.01
2022-11-17T21:53:27.698Z,3.91
2022-11-17T21:56:01.220Z,4.06
2022-11-17T21:58:29.038Z,3.86
2022-11-17T22:00:57.431Z,4.04
2022-11-17T22:03:25.995Z,4.03
2022-11-17T22:06:01.010Z,3.83
2022-11-17T22:08:29.991Z,3.59
2022-11-17T22:10:57.789Z,3.89
2022-11-17T22:13:25.575Z,4.15
2022-11-17T22:15:53.526Z,3.81
2022-11-17T22:18:21.393Z,3.87
2022-11-17T22:20:52.021Z,4.11
2022-11-17T22:23:21.407Z,3.88
2022-11-17T22:25:54.390Z,3.82
2022-11-17T22:28:22.744Z,3.69
2022-11-17T22:30:50.796Z,3.86
2022-11-17T22:33:19.047Z,3.58
2022-11-17T22:35:47.278Z,3.69
2022-11-17T22:38:16.073Z,3.62
2022-11-17T22:40:45.280Z,3.70
2022-11-17T22:43:15.496Z,3.91
2022-11-17T22:45:43.779Z,3.92
2022-11-17T22:48:11.714Z,3.80
2022-11-17T22:50:39.447Z,3.77
2022-11-17T22:53:07.215Z,3.86
2022-11-17T22:55:35.348Z,3.81
2022-11-17T22:58:04.693Z,4.16
2022-11-17T23:00:32.561Z,3.71
2022-11-17T23:03:00.386Z,4.03
2022-11-17T23:05:28.241Z,3.88
2022-11-17T23:07:55.954Z,4.10
2022-11-17T23:10:23.725Z,3.85
2022-11-17T23:12:51.660Z,3.64
2022-11-17T23:15:21.333Z,3.91
2022-11-17T23:17:49.930Z,3.56
2022-11-17T23:20:18.162Z,3.67
2022-11-17T23:22:45.946Z,3.58
2022-11-17T23:25:13.742Z,3.65
2022-11-17T23:27:41.619Z,4.11
2022-11-17T23:30:10.429Z,3.82
2022-11-17T23:32:39.648Z,3.71
2022-11-17T23:35:08.224Z,3.66
2022-11-17T23:37:35.992Z,3.99
2022-11-17T23:40:03.859Z,3.53
2022-11-17T23:42:32.797Z,3.64
2022-11-17T23:45:01.158Z,3.59
2022-11-17T23:47:28.793Z,3.82
2022-11-17T23:49:57.893Z,3.83
2022-11-17T23:52:25.636Z,3.97
2022-11-17T23:54:53.495Z,3.89
2022-11-17T23:57:21.255Z,3.79
2022-11-17T23:59:49.150Z,4.14
